createdAt,value
2023-02-22T00:02:27.262Z,86.18
2023-02-22T00:04:55.568Z,86.67
2023-02-22T00:07:24.058Z,87.03
2023-02-22T00:09:52.665Z,87.54
2023-02-22T00:12:21.366Z,87.96
2023-02-22T00:14:51.599Z,88.10
2023-02-22T00:17:20.858Z,88.40
2023-02-22T00:19:50.853Z,88.73
2023-02-22T00:22:19.850Z,89.24
2023-02-22T00:25:07.122Z,89.78
2023-02-22T00:27:36.123Z,90.15
2023-02-22T00:30:07.602Z,90.47
2023-02-22T00:32:39.621Z,90.82
2023-02-22T00:35:09.763Z,91.11
2023-02-22T00:37:42.113Z,91.30
2023-02-22T00:40:11.845Z,91.49
2023-02-22T00:42:40.189Z,91.83
2023-02-22T00:45:09.387Z,91.97
2023-02-22T00:47:37.882Z,92.07
2023-02-22T00:50:06.572Z,92.21
2023-02-22T00:52:36.380Z,92.43
2023-02-22T00:55:07.835Z,92.63
2023-02-22T00:57:37.007Z,92.64
2023-02-22T01:00:12.341Z,92.73
2023-02-22T01:02:42.465Z,92.61
2023-02-22T01:05:16.543Z,92.46
2023-02-22T01:07:46.470Z,92.43
2023-02-22T01:10:19.652Z,92.08
2023-02-22T01:12:50.252Z,92.00
2023-02-22T01:15:23.603Z,92.06
2023-02-22T01:17:53.885Z,92.28
2023-02-22T01:20:29.513Z,92.36
2023-02-22T01:22:58.991Z,92.35
2023-02-22T01:25:29.191Z,92.47
2023-02-22T01:27:58.814Z,92.76
2023-02-22T01:30:30.490Z,92.80
2023-02-22T01:32:59.043Z,93.09
2023-02-22T01:35:29.705Z,93.40
2023-02-22T01:37:58.565Z,93.55
2023-02-22T01:40:38.248Z,93.60
2023-02-22T01:43:30.018Z,93.51
2023-02-22T01:46:01.617Z,93.30
2023-02-22T01:48:49.770Z,93.08
2023-02-22T01:51:20.545Z,92.67
2023-02-22T01:54:09.820Z,92.32
2023-02-22T01:56:38.986Z,91.70
2023-02-22T01:59:10.182Z,91.32
2023-02-22T02:01:43.293Z,90.92
2023-02-22T02:04:18.423Z,90.34
2023-02-22T02:06:49.182Z,90.08
2023-02-22T02:09:55.879Z,89.19
2023-02-22T02:12:25.237Z,88.08
2023-02-22T02:14:54.276Z,87.73
2023-02-22T02:17:22.933Z,87.26
2023-02-22T02:20:13.576Z,86.49
2023-02-22T02:22:46.567Z,85.93
2023-02-22T02:25:33.899Z,85.40
2023-02-22T02:28:10.388Z,84.72
2023-02-22T02:31:21.352Z,84.19
2023-02-22T02:34:47.069Z,83.42
2023-02-22T02:37:33.485Z,83.16
2023-02-22T02:40:14.315Z,82.52
2023-02-22T02:42:54.973Z,82.03
2023-02-22T02:45:35.290Z,81.69
2023-02-22T02:48:03.963Z,81.28
2023-02-22T02:50:38.282Z,81.10
2023-02-22T02:53:08.395Z,80.82
2023-02-22T02:55:37.436Z,80.47
2023-02-22T02:58:06.656Z,80.13
2023-02-22T03:00:40.818Z,80.00
2023-02-22T03:03:37.748Z,79.93
2023-02-22T03:06:37.090Z,79.62
2023-02-22T03:09:35.814Z,79.36
2023-02-22T03:12:32.721Z,79.20
2023-02-22T03:15:44.066Z,79.05
2023-02-22T03:18:18.116Z,78.95
2023-02-22T03:21:18.698Z,78.83
2023-02-22T03:23:59.476Z,78.81
2023-02-22T03:27:04.506Z,78.84
2023-02-22T03:29:35.936Z,78.84
2023-02-22T03:32:07.414Z,78.84
2023-02-22T03:34:44.325Z,78.76
2023-02-22T03:37:22.281Z,78.87
2023-02-22T03:39:52.997Z,78.82
2023-02-22T03:42:24.227Z,78.79
2023-02-22T03:44:54.024Z,78.87
2023-02-22T03:47:40.359Z,78.78
2023-02-22T03:50:10.560Z,78.93
2023-02-22T03:52:39.260Z,79.13
2023-02-22T03:55:12.172Z,79.22
2023-02-22T03:57:42.469Z,79.20
2023-02-22T04:00:12.498Z,79.28
2023-02-22T04:02:45.407Z,79.17
2023-02-22T04:05:17.439Z,78.98
2023-02-22T04:07:46.326Z,78.94
2023-02-22T04:10:16.441Z,78.78
2023-02-22T04:12:46.254Z,78.88
2023-02-22T04:15:21.429Z,78.95
2023-02-22T04:17:52.637Z,79.20
2023-02-22T04:20:25.801Z,79.13
2023-02-22T04:23:00.558Z,79.32
2023-02-22T04:25:30.598Z,79.36
2023-02-22T04:27:59.556Z,79.58
2023-02-22T04:30:46.270Z,79.65
2023-02-22T04:33:17.423Z,79.88
2023-02-22T04:35:46.205Z,79.91
2023-02-22T04:38:15.548Z,80.16
2023-02-22T04:40:44.058Z,80.48
2023-02-22T04:43:15.474Z,80.63
2023-02-22T04:45:44.872Z,80.92
2023-02-22T04:48:13.601Z,80.98
2023-02-22T04:50:44.025Z,81.41
2023-02-22T04:53:12.920Z,81.58
2023-02-22T04:55:41.377Z,82.01
2023-02-22T04:58:10.111Z,82.07
2023-02-22T05:00:41.355Z,82.35
2023-02-22T05:03:09.762Z,82.25
2023-02-22T05:05:38.442Z,82.18
2023-02-22T05:08:06.843Z,82.19
2023-02-22T05:10:38.588Z,82.11
2023-02-22T05:13:07.326Z,82.23
2023-02-22T05:15:35.920Z,82.23
2023-02-22T05:18:05.214Z,82.34
2023-02-22T05:20:34.939Z,82.47
2023-02-22T05:23:03.508Z,82.52
2023-02-22T05:25:34.772Z,82.39
2023-02-22T05:28:05.440Z,82.18
2023-02-22T05:30:35.572Z,81.98
2023-02-22T05:33:03.983Z,81.89
2023-02-22T05:35:32.801Z,81.52
2023-02-22T05:38:03.400Z,81.57
2023-02-22T05:40:33.340Z,81.36
2023-02-22T05:43:02.985Z,80.99
2023-02-22T05:45:32.470Z,81.12
2023-02-22T05:48:01.382Z,80.87
2023-02-22T05:50:30.755Z,80.82
2023-02-22T05:52:59.442Z,80.68
2023-02-22T05:55:27.810Z,81.11
2023-02-22T05:57:56.188Z,81.17
2023-02-22T06:00:27.027Z,81.07
2023-02-22T06:02:56.655Z,80.99
2023-02-22T06:05:25.773Z,80.80
2023-02-22T06:07:54.334Z,80.45
2023-02-22T06:10:22.750Z,80.52
2023-02-22T06:12:51.245Z,80.36
2023-02-22T06:15:21.610Z,80.02
2023-02-22T06:17:50.019Z,79.84
2023-02-22T06:20:21.500Z,79.89
2023-02-22T06:22:54.401Z,79.93
2023-02-22T06:25:26.080Z,79.87
2023-02-22T06:27:54.625Z,79.94
2023-02-22T06:30:24.135Z,79.91
2023-02-22T06:32:52.528Z,80.06
2023-02-22T06:35:22.008Z,80.19
2023-02-22T06:37:50.302Z,80.12
2023-02-22T06:40:19.291Z,79.86
2023-02-22T06:42:50.138Z,79.93
2023-02-22T06:45:19.807Z,80.12
2023-02-22T06:47:49.877Z,79.81
2023-02-22T06:50:29.552Z,79.86
2023-02-22T06:52:58.476Z,79.94
2023-02-22T06:55:31.916Z,79.71
2023-02-22T06:58:01.121Z,79.46
2023-02-22T07:00:30.858Z,79.27
2023-02-22T07:02:59.507Z,79.22
2023-02-22T07:05:31.775Z,78.95
2023-02-22T07:08:07.197Z,78.77
2023-02-22T07:10:38.152Z,78.79
2023-02-22T07:13:09.618Z,78.75
2023-02-22T07:15:39.648Z,78.82
2023-02-22T07:18:08.353Z,78.13
2023-02-22T07:20:39.438Z,78.45
2023-02-22T07:23:09.446Z,78.21
2023-02-22T07:25:37.826Z,78.17
2023-02-22T07:28:07.203Z,78.25
2023-02-22T07:30:39.358Z,78.26
2023-02-22T07:33:09.081Z,77.64
2023-02-22T07:35:48.120Z,76.91
2023-02-22T07:38:22.037Z,77.23
2023-02-22T07:40:50.892Z,77.14
2023-02-22T07:43:27.182Z,77.52
2023-02-22T07:45:57.187Z,77.87
2023-02-22T07:48:28.816Z,77.48
2023-02-22T07:50:58.185Z,77.98
2023-02-22T07:53:30.472Z,78.20
2023-02-22T07:56:01.037Z,78.49
2023-02-22T07:58:32.079Z,78.16
2023-02-22T08:01:04.525Z,78.17
2023-02-22T08:03:37.018Z,77.66
2023-02-22T08:06:07.523Z,76.68
2023-02-22T08:08:36.968Z,76.53
2023-02-22T08:11:06.172Z,76.80
2023-02-22T08:13:37.710Z,76.54
2023-02-22T08:16:06.679Z,77.00
2023-02-22T08:18:38.476Z,77.13
2023-02-22T08:21:08.065Z,76.94
2023-02-22T08:23:39.198Z,76.58
2023-02-22T08:26:09.629Z,76.31
2023-02-22T08:28:39.827Z,76.04
2023-02-22T08:31:10.173Z,75.91
2023-02-22T08:33:38.826Z,75.68
2023-02-22T08:36:08.596Z,75.15
2023-02-22T08:38:39.058Z,73.04
2023-02-22T08:41:08.609Z,72.11
2023-02-22T08:43:37.854Z,72.44
2023-02-22T08:46:06.879Z,72.64
2023-02-22T08:48:36.765Z,72.06
2023-02-22T08:51:05.697Z,72.67
2023-02-22T08:53:35.203Z,72.66
2023-02-22T08:56:04.193Z,72.17
2023-02-22T08:58:32.694Z,71.88
2023-02-22T09:01:01.781Z,71.80
2023-02-22T09:03:30.274Z,71.62
2023-02-22T09:05:59.840Z,71.91
2023-02-22T09:08:31.713Z,72.33
2023-02-22T09:11:00.476Z,71.84
2023-02-22T09:13:28.827Z,70.85
2023-02-22T09:15:57.246Z,69.65
2023-02-22T09:18:30.554Z,69.70
2023-02-22T09:21:06.175Z,69.67
2023-02-22T09:23:35.251Z,69.30
2023-02-22T09:26:08.114Z,67.58
2023-02-22T09:28:36.974Z,67.62
2023-02-22T09:31:05.794Z,67.88
2023-02-22T09:33:35.750Z,67.96
2023-02-22T09:36:07.084Z,67.59
2023-02-22T09:38:36.580Z,66.91
2023-02-22T09:41:14.856Z,66.54
2023-02-22T09:44:16.873Z,66.36
2023-02-22T09:46:46.180Z,66.32
2023-02-22T09:49:31.466Z,66.33
2023-02-22T09:52:05.373Z,65.91
2023-02-22T09:54:38.566Z,66.14
2023-02-22T09:57:40.902Z,66.06
2023-02-22T10:00:18.495Z,65.26
2023-02-22T10:02:47.318Z,65.33
2023-02-22T10:05:28.468Z,64.85
2023-02-22T10:08:06.180Z,63.64
2023-02-22T10:10:39.437Z,63.12
2023-02-22T10:13:14.322Z,63.05
2023-02-22T10:15:51.743Z,63.32
2023-02-22T10:19:08.218Z,63.67
2023-02-22T10:22:14.195Z,63.57
2023-02-22T10:24:57.894Z,63.22
2023-02-22T10:27:49.502Z,62.30
2023-02-22T10:30:25.440Z,61.84
2023-02-22T10:33:17.856Z,61.43
2023-02-22T10:35:47.155Z,61.21
2023-02-22T10:38:32.594Z,60.91
2023-02-22T10:41:04.236Z,60.16
2023-02-22T10:43:33.577Z,59.95
2023-02-22T10:46:05.143Z,59.60
2023-02-22T10:48:37.480Z,58.90
2023-02-22T10:51:08.729Z,59.17
2023-02-22T10:53:38.675Z,58.62
2023-02-22T10:56:13.268Z,58.60
2023-02-22T10:59:03.109Z,58.44
2023-02-22T11:01:32.050Z,58.60
2023-02-22T11:04:05.574Z,58.52
2023-02-22T11:06:35.013Z,58.49
2023-02-22T11:09:11.110Z,58.65
2023-02-22T11:11:43.641Z,58.76
2023-02-22T11:14:13.927Z,58.93
2023-02-22T11:16:47.827Z,58.98
2023-02-22T11:19:16.693Z,59.15
2023-02-22T11:21:45.383Z,59.16
2023-02-22T11:24:14.586Z,58.99
2023-02-22T11:26:44.898Z,58.88
2023-02-22T11:29:27.776Z,58.64
2023-02-22T11:31:56.246Z,58.28
2023-02-22T11:34:27.861Z,58.42
2023-02-22T11:36:56.810Z,58.63
2023-02-22T11:39:35.799Z,58.18
2023-02-22T11:42:25.092Z,58.32
2023-02-22T11:45:13.218Z,58.67
2023-02-22T11:47:55.720Z,58.82
2023-02-22T11:50:40.749Z,58.83
2023-02-22T11:53:22.897Z,59.12
2023-02-22T11:56:16.131Z,59.10
2023-02-22T11:59:29.529Z,59.07
2023-02-22T12:02:27.516Z,58.95
2023-02-22T12:05:08.386Z,59.33
2023-02-22T12:07:59.049Z,59.99
2023-02-22T12:10:43.650Z,61.51
2023-02-22T12:13:55.974Z,63.48
2023-02-22T12:16:31.973Z,64.62
2023-02-22T12:19:15.409Z,65.15
2023-02-22T12:21:45.371Z,65.76
2023-02-22T12:24:28.017Z,65.99
2023-02-22T12:27:00.367Z,66.41
2023-02-22T12:29:37.787Z,66.64
2023-02-22T12:32:18.679Z,67.16
2023-02-22T12:34:49.180Z,67.23
2023-02-22T12:37:30.014Z,67.30
2023-02-22T12:40:09.621Z,67.72
2023-02-22T12:42:48.635Z,67.86
2023-02-22T12:45:58.347Z,67.95
2023-02-22T12:48:36.242Z,68.02
2023-02-22T12:51:43.302Z,68.12
2023-02-22T12:54:18.926Z,67.85
2023-02-22T12:56:57.918Z,67.81
2023-02-22T12:59:30.819Z,67.66
2023-02-22T13:02:03.462Z,67.63
2023-02-22T13:04:34.902Z,67.31
2023-02-22T13:07:16.451Z,67.81
2023-02-22T13:09:51.372Z,67.89
2023-02-22T13:12:46.008Z,67.03
2023-02-22T13:15:20.334Z,66.46
2023-02-22T13:18:01.575Z,66.28
2023-02-22T13:20:43.097Z,66.41
2023-02-22T13:23:12.793Z,66.15
2023-02-22T13:25:57.781Z,65.79
2023-02-22T13:28:57.749Z,65.13
2023-02-22T13:31:30.755Z,64.49
2023-02-22T13:34:18.134Z,64.02
2023-02-22T13:36:49.484Z,63.56
2023-02-22T13:39:54.952Z,63.32
2023-02-22T13:42:35.638Z,61.63
2023-02-22T13:45:29.926Z,59.94
2023-02-22T13:48:04.523Z,57.95
2023-02-22T13:50:50.774Z,58.19
2023-02-22T13:53:23.789Z,58.69
2023-02-22T13:55:55.410Z,58.82
2023-02-22T13:58:24.302Z,58.50
2023-02-22T14:00:57.540Z,58.17
2023-02-22T14:03:34.513Z,58.71
2023-02-22T14:06:07.284Z,60.82
2023-02-22T14:08:36.194Z,62.42
2023-02-22T14:11:28.333Z,62.96
2023-02-22T14:14:01.207Z,63.49
2023-02-22T14:16:30.800Z,63.72
2023-02-22T14:19:06.672Z,63.79
2023-02-22T14:21:35.979Z,63.73
2023-02-22T14:24:09.606Z,63.66
2023-02-22T14:26:39.736Z,63.95
2023-02-22T14:29:17.022Z,64.16
2023-02-22T14:31:50.284Z,64.38
2023-02-22T14:34:22.438Z,64.37
2023-02-22T14:37:05.398Z,63.40
2023-02-22T14:39:44.479Z,62.73
2023-02-22T14:42:13.387Z,62.71
2023-02-22T14:44:53.991Z,62.62
2023-02-22T14:47:39.994Z,62.92
2023-02-22T14:50:27.481Z,63.40
2023-02-22T14:53:07.904Z,63.60
2023-02-22T14:55:48.084Z,63.35
2023-02-22T14:58:19.292Z,63.27
2023-02-22T15:00:50.035Z,63.25
2023-02-22T15:03:38.644Z,63.35
2023-02-22T15:06:20.147Z,63.32
2023-02-22T15:09:07.360Z,63.65
2023-02-22T15:11:36.300Z,64.92
2023-02-22T15:14:25.118Z,65.42
2023-02-22T15:17:00.695Z,65.90
2023-02-22T15:19:31.453Z,66.34
2023-02-22T15:22:00.353Z,66.41
2023-02-22T15:24:34.010Z,66.37
2023-02-22T15:27:06.381Z,66.48
2023-02-22T15:29:44.702Z,66.53
2023-02-22T15:32:34.324Z,66.40
2023-02-22T15:35:14.870Z,65.56
2023-02-22T15:37:47.004Z,65.27
2023-02-22T15:40:17.875Z,65.53
2023-02-22T15:42:53.283Z,65.42
2023-02-22T15:45:22.611Z,65.49
2023-02-22T15:47:54.562Z,65.08
2023-02-22T15:50:34.052Z,65.32
2023-02-22T15:53:27.383Z,65.49
2023-02-22T15:56:01.241Z,65.69
2023-02-22T15:58:32.298Z,65.67
2023-02-22T16:01:14.480Z,65.83
2023-02-22T16:03:45.954Z,65.86
2023-02-22T16:06:28.787Z,67.59
2023-02-22T16:08:59.269Z,69.97
2023-02-22T16:11:35.295Z,71.91
2023-02-22T16:14:07.306Z,73.20
2023-02-22T16:16:37.165Z,74.68
2023-02-22T16:19:27.425Z,74.81
2023-02-22T16:22:13.510Z,75.79
2023-02-22T16:24:42.548Z,77.36
2023-02-22T16:27:16.577Z,78.41
2023-02-22T16:30:29.295Z,79.16
2023-02-22T16:32:58.399Z,79.14
2023-02-22T16:35:29.054Z,79.73
2023-02-22T16:38:02.731Z,79.85
2023-02-22T16:40:34.639Z,79.98
2023-02-22T16:43:13.091Z,79.48
2023-02-22T16:45:42.744Z,79.03
2023-02-22T16:48:18.827Z,78.96
2023-02-22T16:50:50.247Z,79.40
2023-02-22T16:53:22.974Z,80.47
2023-02-22T16:55:57.836Z,81.07
2023-02-22T16:58:28.074Z,80.89
2023-02-22T17:00:57.724Z,80.84
2023-02-22T17:03:26.389Z,80.59
2023-02-22T17:05:55.106Z,80.18
2023-02-22T17:08:24.774Z,79.77
2023-02-22T17:10:56.881Z,79.51
2023-02-22T17:13:27.226Z,78.55
2023-02-22T17:15:56.731Z,78.08
2023-02-22T17:18:28.935Z,77.31
2023-02-22T17:20:57.717Z,76.95
2023-02-22T17:23:27.817Z,76.23
2023-02-22T17:25:57.293Z,75.81
2023-02-22T17:28:26.166Z,75.37
2023-02-22T17:30:59.546Z,74.75
2023-02-22T17:33:33.311Z,73.44
2023-02-22T17:36:08.715Z,73.33
2023-02-22T17:38:41.817Z,73.63
2023-02-22T17:41:13.506Z,73.88
2023-02-22T17:43:43.145Z,73.78
2023-02-22T17:46:12.501Z,73.52
2023-02-22T17:48:41.386Z,73.58
2023-02-22T17:51:11.017Z,73.48
2023-02-22T17:53:40.160Z,73.72
2023-02-22T17:56:10.700Z,73.59
2023-02-22T17:58:40.867Z,73.27
2023-02-22T18:01:44.194Z,72.85
2023-02-22T18:04:13.368Z,70.79
2023-02-22T18:06:44.847Z,70.58
2023-02-22T18:09:17.925Z,69.90
2023-02-22T18:11:46.341Z,69.62
2023-02-22T18:14:14.981Z,69.18
2023-02-22T18:16:47.004Z,68.39
2023-02-22T18:19:20.992Z,67.99
2023-02-22T18:21:53.496Z,67.87
2023-02-22T18:24:24.436Z,67.84
2023-02-22T18:26:53.737Z,67.92
2023-02-22T18:29:22.843Z,68.13
2023-02-22T18:31:53.247Z,67.72
2023-02-22T18:34:25.154Z,67.55
2023-02-22T18:36:53.516Z,67.52
2023-02-22T18:39:23.186Z,67.54
2023-02-22T18:41:52.613Z,67.60
2023-02-22T18:44:22.627Z,67.26
2023-02-22T18:46:51.352Z,66.93
2023-02-22T18:49:19.878Z,66.61
2023-02-22T18:51:48.836Z,66.51
2023-02-22T18:54:19.937Z,66.27
2023-02-22T18:56:48.486Z,66.10
2023-02-22T18:59:17.021Z,66.38
2023-02-22T19:01:49.267Z,66.50
2023-02-22T19:04:18.883Z,66.40
2023-02-22T19:06:48.624Z,66.07
2023-02-22T19:09:17.768Z,65.95
2023-02-22T19:11:48.509Z,65.82
2023-02-22T19:14:17.747Z,65.53
2023-02-22T19:16:46.638Z,65.58
2023-02-22T19:19:20.831Z,65.43
2023-02-22T19:21:49.574Z,65.75
2023-02-22T19:24:19.088Z,65.73
2023-02-22T19:26:50.864Z,65.65
2023-02-22T19:29:25.069Z,65.11
2023-02-22T19:31:54.039Z,65.00
2023-02-22T19:34:24.858Z,64.99
2023-02-22T19:36:53.350Z,64.75
2023-02-22T19:41:58.342Z,65.11
2023-02-22T19:44:27.407Z,65.39
2023-02-22T19:47:00.319Z,65.17
2023-02-22T19:49:30.046Z,64.85
2023-02-22T19:51:58.864Z,65.02
2023-02-22T19:54:27.760Z,65.24
2023-02-22T19:56:58.196Z,65.34
2023-02-22T19:59:27.071Z,65.77
2023-02-22T20:01:56.185Z,65.86
2023-02-22T20:04:30.743Z,66.07
2023-02-22T20:07:00.298Z,65.94
2023-02-22T20:09:48.230Z,65.91
2023-02-22T20:12:16.589Z,65.92
2023-02-22T20:14:46.662Z,65.58
2023-02-22T20:17:15.687Z,65.75
2023-02-22T20:19:44.796Z,65.31
2023-02-22T20:22:13.618Z,65.20
2023-02-22T20:24:43.120Z,64.93
2023-02-22T20:27:13.142Z,64.63
2023-02-22T20:29:41.578Z,64.43
2023-02-22T20:32:12.183Z,64.46
2023-02-22T20:34:44.822Z,64.85
2023-02-22T20:37:14.617Z,65.19
2023-02-22T20:39:44.961Z,64.87
2023-02-22T20:42:15.744Z,64.92
2023-02-22T20:44:45.466Z,65.18
2023-02-22T20:47:14.211Z,65.44
2023-02-22T20:49:44.520Z,65.73
2023-02-22T20:52:16.378Z,65.97
2023-02-22T20:54:46.049Z,66.41
2023-02-22T20:57:14.963Z,66.61
2023-02-22T20:59:44.563Z,66.81
2023-02-22T21:02:13.202Z,66.90
2023-02-22T21:04:41.873Z,67.28
2023-02-22T21:07:10.174Z,67.46
2023-02-22T21:09:40.571Z,67.93
2023-02-22T21:12:13.769Z,68.22
2023-02-22T21:14:44.400Z,68.30
2023-02-22T21:17:13.129Z,68.61
2023-02-22T21:19:42.431Z,69.02
2023-02-22T21:22:12.530Z,69.32
2023-02-22T21:24:42.004Z,69.50
2023-02-22T21:27:12.413Z,69.81
2023-02-22T21:29:41.088Z,70.05
2023-02-22T21:32:10.529Z,70.04
2023-02-22T21:34:39.194Z,70.22
2023-02-22T21:37:08.501Z,70.47
2023-02-22T21:39:40.652Z,70.62
2023-02-22T21:42:09.171Z,70.91
2023-02-22T21:44:37.931Z,71.15
2023-02-22T21:47:08.029Z,71.37
2023-02-22T21:49:38.358Z,71.74
2023-02-22T21:52:08.008Z,71.70
2023-02-22T21:54:37.741Z,71.75
2023-02-22T21:57:07.013Z,71.92
2023-02-22T21:59:35.421Z,72.14
2023-02-22T22:02:04.317Z,72.06
2023-02-22T22:04:35.140Z,72.26
2023-02-22T22:07:05.327Z,72.17
2023-02-22T22:09:37.587Z,72.24
2023-02-22T22:12:10.817Z,72.29
2023-02-22T22:14:42.264Z,72.26
2023-02-22T22:17:13.022Z,72.60
2023-02-22T22:19:44.626Z,72.53
2023-02-22T22:22:13.305Z,72.72
2023-02-22T22:24:45.974Z,72.81
2023-02-22T22:27:15.273Z,72.85
2023-02-22T22:29:43.769Z,72.86
2023-02-22T22:32:13.925Z,72.72
2023-02-22T22:34:44.031Z,72.72
2023-02-22T22:37:13.400Z,72.97
2023-02-22T22:39:42.732Z,73.12
2023-02-22T22:42:11.417Z,73.26
2023-02-22T22:44:42.702Z,73.53
2023-02-22T22:47:14.447Z,73.47
2023-02-22T22:49:43.022Z,73.40
2023-02-22T22:52:14.142Z,73.39
2023-02-22T22:54:47.465Z,73.46
2023-02-22T22:57:15.783Z,73.67
2023-02-22T22:59:44.026Z,73.73
2023-02-22T23:02:12.838Z,73.88
2023-02-22T23:04:41.309Z,74.05
2023-02-22T23:07:11.415Z,74.09
2023-02-22T23:09:41.744Z,74.42
2023-02-22T23:12:18.056Z,74.64
2023-02-22T23:14:52.237Z,74.78
2023-02-22T23:17:43.942Z,74.70
2023-02-22T23:20:13.167Z,74.88
2023-02-22T23:22:47.389Z,74.75
2023-02-22T23:25:19.850Z,74.82
2023-02-22T23:27:49.617Z,74.47
2023-02-22T23:30:22.527Z,74.46
2023-02-22T23:32:53.357Z,74.33
2023-02-22T23:35:21.584Z,74.45
2023-02-22T23:37:53.142Z,74.38
2023-02-22T23:40:21.768Z,74.67
2023-02-22T23:42:51.531Z,74.90
2023-02-22T23:45:23.628Z,75.15
2023-02-22T23:47:55.248Z,75.23
2023-02-22T23:50:26.991Z,75.60
2023-02-22T23:52:59.782Z,75.83
2023-02-22T23:55:31.722Z,76.26
2023-02-22T23:58:00.112Z,76.48
